Time;durP1;ratioP1;P1;durP2;ratioP2;P2;SDS_P1;SDS_P2;PMS_P1;PMS_P2;Temp;Humidity;BMP_temperature;BMP_pressure;BME280_temperature;BME280_humidity;BME280_pressure;Samples;Min_cycle;Max_cycle;Signal;HPM_P1;HPM_P2
2020/12/01 00:00:14;;;;;;;28.97;26.23;;;4.80;99.90;;;;;;5000840;28;20465;-77
2020/12/01 00:02:42;;;;;;;31.40;28.10;;;4.80;99.90;;;;;;5004164;28;20464;-78
2020/12/01 00:05:10;;;;;;;30.80;27.53;;;4.80;99.90;;;;;;5003284;28;20493;-77
2020/12/01 00:07:36;;;;;;;31.10;27.73;;;4.90;99.90;;;;;;5002480;28;20467;-77
2020/12/01 00:10:04;;;;;;;30.93;27.40;;;4.90;99.90;;;;;;5005945;28;20882;-78
2020/12/01 00:12:32;;;;;;;29.30;26.37;;;4.90;99.90;;;;;;5007233;28;20468;-77
2020/12/01 00:14:58;;;;;;;28.50;24.80;;;4.90;99.90;;;;;;5004440;28;20852;-78
2020/12/01 00:17:26;;;;;;;34.40;27.70;;;4.90;99.90;;;;;;5002642;28;21008;-78
2020/12/01 00:19:52;;;;;;;33.13;29.67;;;4.90;99.90;;;;;;5000340;28;20896;-77
2020/12/01 00:22:19;;;;;;;31.90;28.40;;;4.80;99.90;;;;;;5006885;28;20461;-77
2020/12/01 00:24:45;;;;;;;23.70;21.30;;;4.80;99.90;;;;;;4999985;28;20501;-77
2020/12/01 00:27:12;;;;;;;29.37;26.30;;;4.80;99.90;;;;;;4997540;28;20780;-78
2020/12/01 00:29:42;;;;;;;29.50;26.37;;;4.80;99.90;;;;;;5002554;28;20835;-77
2020/12/01 00:32:09;;;;;;;28.33;25.50;;;4.80;99.90;;;;;;5004231;28;20968;-80
2020/12/01 00:34:35;;;;;;;29.33;26.53;;;4.90;99.90;;;;;;5005220;28;20532;-78
2020/12/01 00:37:03;;;;;;;31.63;28.23;;;4.90;99.90;;;;;;4999712;28;20466;-80
2020/12/01 00:39:32;;;;;;;31.10;27.70;;;4.90;99.90;;;;;;5002309;28;20472;-79
2020/12/01 00:41:58;;;;;;;27.87;25.17;;;4.90;99.90;;;;;;5002526;28;20535;-78
2020/12/01 00:44:26;;;;;;;29.10;26.00;;;5.00;99.90;;;;;;5002839;28;20500;-80
2020/12/01 00:46:54;;;;;;;32.30;28.90;;;4.90;99.90;;;;;;5005361;28;20458;-79
2020/12/01 00:49:22;;;;;;;29.37;26.97;;;5.00;99.90;;;;;;4997486;28;20552;-76
2020/12/01 00:51:49;;;;;;;33.53;30.00;;;5.00;99.90;;;;;;4997574;28;20471;-77
2020/12/01 00:54:15;;;;;;;32.23;29.23;;;5.00;99.90;;;;;;4997983;28;20494;-78
2020/12/01 00:56:42;;;;;;;30.77;27.87;;;4.90;99.90;;;;;;4997188;28;20481;-78
2020/12/01 00:59:08;;;;;;;32.63;29.40;;;5.00;99.90;;;;;;4997714;28;21208;-78
2020/12/01 01:01:35;;;;;;;35.13;31.33;;;5.10;99.90;;;;;;5000042;28;20464;-80
2020/12/01 01:04:02;;;;;;;36.00;31.27;;;5.00;99.90;;;;;;5002413;28;20465;-80
2020/12/01 01:06:28;;;;;;;35.60;31.27;;;5.10;99.90;;;;;;5000542;28;20473;-78
2020/12/01 01:08:55;;;;;;;37.57;31.83;;;5.10;99.90;;;;;;5000490;28;20477;-80
2020/12/01 01:11:27;;;;;;;36.63;32.63;;;5.10;99.90;;;;;;5002085;28;20469;-80
2020/12/01 01:13:54;;;;;;;37.00;31.07;;;5.10;99.90;;;;;;5002826;28;20457;-79
2020/12/01 01:16:24;;;;;;;38.33;32.60;;;5.20;99.90;;;;;;5003340;28;20462;-81
2020/12/01 01:18:51;;;;;;;39.67;32.50;;;5.20;99.90;;;;;;5003429;28;20496;-79
2020/12/01 01:21:18;;;;;;;45.10;34.03;;;5.20;99.90;;;;;;5004166;28;20886;-80
2020/12/01 01:23:46;;;;;;;35.53;31.30;;;5.20;99.90;;;;;;4993057;28;20489;-78
2020/12/01 01:26:13;;;;;;;33.57;29.73;;;5.20;99.90;;;;;;5002385;28;20491;-82
2020/12/01 01:28:40;;;;;;;34.53;29.60;;;5.20;99.90;;;;;;5002868;28;20627;-79
2020/12/01 01:31:06;;;;;;;34.47;29.97;;;5.20;99.90;;;;;;5004378;28;20474;-80
2020/12/01 01:33:32;;;;;;;42.53;35.23;;;5.20;99.90;;;;;;4994595;28;20478;-78
2020/12/01 01:35:59;;;;;;;39.27;33.37;;;5.30;99.90;;;;;;5002999;28;20465;-78
2020/12/01 01:38:27;;;;;;;41.47;35.33;;;5.40;99.90;;;;;;5002037;28;20524;-77
2020/12/01 01:40:56;;;;;;;42.47;35.93;;;5.40;99.90;;;;;;4996437;28;20477;-76
2020/12/01 01:43:23;;;;;;;42.63;33.33;;;5.40;99.90;;;;;;5006096;28;20821;-78
2020/12/01 01:45:50;;;;;;;41.13;36.07;;;5.40;99.90;;;;;;5004224;28;20493;-79
2020/12/01 01:48:22;;;;;;;47.17;36.03;;;5.40;99.90;;;;;;4998813;28;20457;-78
2020/12/01 01:50:58;;;;;;;38.97;34.80;;;5.40;99.90;;;;;;4997591;28;20461;-79
2020/12/01 01:53:26;;;;;;;35.97;31.93;;;5.40;99.90;;;;;;5003840;28;20504;-78
2020/12/01 01:55:57;;;;;;;37.63;32.00;;;5.40;99.90;;;;;;5005808;28;20472;-78
2020/12/01 01:58:28;;;;;;;39.87;34.07;;;5.40;99.90;;;;;;5003365;28;20496;-77
2020/12/01 02:01:02;;;;;;;46.60;35.00;;;5.40;99.90;;;;;;5000616;28;20478;-79
2020/12/01 02:03:36;;;;;;;48.10;35.93;;;5.40;99.90;;;;;;4998813;28;20800;-78
2020/12/01 02:06:06;;;;;;;37.70;33.53;;;5.50;99.90;;;;;;4999848;28;20543;-79
2020/12/01 02:08:34;;;;;;;42.07;36.60;;;5.50;99.90;;;;;;5000045;28;20469;-79
2020/12/01 02:11:01;;;;;;;48.70;36.00;;;5.50;99.90;;;;;;4996239;28;20848;-77
2020/12/01 02:13:38;;;;;;;35.47;31.03;;;5.50;99.90;;;;;;4997693;28;20987;-80
2020/12/01 02:16:05;;;;;;;44.27;39.33;;;5.50;99.90;;;;;;4995455;28;20468;-77
2020/12/01 02:18:34;;;;;;;47.37;39.23;;;5.50;99.90;;;;;;5005896;28;20523;-79
2020/12/01 02:21:03;;;;;;;45.60;38.23;;;5.50;99.90;;;;;;5003601;28;20466;-79
2020/12/01 02:23:32;;;;;;;45.37;37.50;;;5.60;99.90;;;;;;5002700;28;20500;-79
2020/12/01 02:26:02;;;;;;;44.10;37.00;;;5.70;99.90;;;;;;4997344;28;21039;-77
2020/12/01 02:28:30;;;;;;;52.00;39.00;;;5.70;99.90;;;;;;4999149;28;20462;-78
2020/12/01 02:30:56;;;;;;;45.10;39.07;;;5.80;99.90;;;;;;5003333;28;20469;-78
2020/12/01 02:33:24;;;;;;;37.47;33.37;;;5.80;99.90;;;;;;5007583;28;20478;-80
2020/12/01 02:35:50;;;;;;;39.57;32.67;;;5.80;99.90;;;;;;5006846;28;20470;-80
2020/12/01 02:38:17;;;;;;;37.10;33.10;;;5.80;99.90;;;;;;5012403;28;20461;-80
2020/12/01 02:40:43;;;;;;;40.70;33.63;;;5.80;99.90;;;;;;4996846;28;20459;-79
2020/12/01 02:43:12;;;;;;;35.83;31.97;;;5.90;99.90;;;;;;5003174;28;20493;-78
2020/12/01 02:45:39;;;;;;;41.03;30.97;;;5.90;99.90;;;;;;5005931;28;20527;-78
2020/12/01 02:48:06;;;;;;;38.23;33.10;;;5.90;99.90;;;;;;5006385;28;20467;-79
2020/12/01 02:50:33;;;;;;;37.50;32.63;;;5.90;99.90;;;;;;5010893;28;20489;-77
2020/12/01 02:52:59;;;;;;;39.17;32.20;;;6.00;99.90;;;;;;5002395;28;20830;-77
2020/12/01 02:55:26;;;;;;;35.97;30.70;;;6.00;99.90;;;;;;5007529;28;20836;-77
2020/12/01 02:57:52;;;;;;;36.60;31.63;;;6.00;99.90;;;;;;5006158;28;20466;-78
2020/12/01 03:00:19;;;;;;;39.73;32.90;;;6.00;99.90;;;;;;4999720;28;20541;-77
2020/12/01 03:02:47;;;;;;;37.27;32.90;;;6.00;99.90;;;;;;5001955;28;20553;-79
2020/12/01 03:05:13;;;;;;;38.07;32.20;;;6.00;99.90;;;;;;5005571;28;20493;-78
2020/12/01 03:07:40;;;;;;;34.63;30.50;;;6.00;99.90;;;;;;5005201;28;20828;-78
2020/12/01 03:10:08;;;;;;;35.83;30.00;;;6.00;99.90;;;;;;5002167;28;20465;-77
2020/12/01 03:12:35;;;;;;;39.70;30.30;;;6.10;99.90;;;;;;5003680;28;20476;-78
2020/12/01 03:15:02;;;;;;;34.37;30.23;;;6.10;99.90;;;;;;5003947;28;20494;-78
2020/12/01 03:17:29;;;;;;;30.87;27.80;;;6.10;99.90;;;;;;5004830;28;20462;-76
2020/12/01 03:19:57;;;;;;;29.17;26.20;;;6.10;99.90;;;;;;5003957;28;20459;-78
2020/12/01 03:22:23;;;;;;;25.93;23.10;;;6.00;99.90;;;;;;5003366;28;20469;-77
2020/12/01 03:24:51;;;;;;;27.87;25.13;;;6.10;99.90;;;;;;5002679;28;21132;-78
2020/12/01 03:27:19;;;;;;;29.03;25.33;;;6.00;99.90;;;;;;5003710;28;20476;-79
2020/12/01 03:29:47;;;;;;;26.80;23.93;;;6.00;99.90;;;;;;5005193;28;20493;-77
2020/12/01 03:32:14;;;;;;;25.33;22.53;;;6.00;99.90;;;;;;5005568;28;20485;-77
2020/12/01 03:34:42;;;;;;;24.53;22.27;;;6.10;99.90;;;;;;5007942;28;20523;-76
2020/12/01 03:37:10;;;;;;;20.83;19.03;;;6.10;99.90;;;;;;5000354;28;20829;-75
2020/12/01 03:39:36;;;;;;;22.80;21.10;;;6.20;99.90;;;;;;5005354;28;20461;-79
2020/12/01 03:42:02;;;;;;;22.43;20.27;;;6.20;99.90;;;;;;5002475;28;20500;-78
2020/12/01 03:44:29;;;;;;;25.10;22.43;;;6.20;99.90;;;;;;5000054;28;20489;-76
2020/12/01 03:46:59;;;;;;;20.83;19.27;;;6.10;99.90;;;;;;5006667;28;20462;-79
2020/12/01 03:49:25;;;;;;;22.30;20.37;;;6.10;99.90;;;;;;5004513;28;20472;-77
2020/12/01 03:51:51;;;;;;;21.63;19.33;;;6.00;99.90;;;;;;5005131;28;20462;-77
2020/12/01 03:54:19;;;;;;;35.70;21.00;;;6.00;99.90;;;;;;5002019;28;20466;-77
2020/12/01 03:56:46;;;;;;;28.83;23.63;;;6.00;99.90;;;;;;5003700;28;20466;-75
2020/12/01 03:59:13;;;;;;;32.90;25.07;;;6.00;99.90;;;;;;5004944;28;20951;-76
2020/12/01 04:01:40;;;;;;;29.10;25.93;;;6.00;99.90;;;;;;5005043;28;20466;-77
2020/12/01 04:04:06;;;;;;;30.17;27.17;;;6.10;99.90;;;;;;5002859;28;20493;-76
2020/12/01 04:06:33;;;;;;;29.10;26.70;;;6.10;99.90;;;;;;5001420;28;20500;-78
2020/12/01 04:09:00;;;;;;;29.03;26.23;;;6.10;99.90;;;;;;5000624;28;20468;-76
2020/12/01 04:11:28;;;;;;;30.37;27.53;;;6.10;99.90;;;;;;5005500;28;20476;-77
2020/12/01 04:13:54;;;;;;;29.90;26.80;;;6.20;99.90;;;;;;5006181;28;20465;-78
2020/12/01 04:16:20;;;;;;;32.63;29.13;;;6.20;99.90;;;;;;5004643;28;20469;-79
2020/12/01 04:18:47;;;;;;;32.20;29.00;;;6.20;99.90;;;;;;5001291;28;20466;-77
2020/12/01 04:21:14;;;;;;;33.33;30.07;;;6.20;99.90;;;;;;5003519;28;20467;-78
2020/12/01 04:23:41;;;;;;;36.17;32.47;;;6.20;99.90;;;;;;4999373;28;20484;-77
2020/12/01 04:26:07;;;;;;;33.40;30.20;;;6.30;99.90;;;;;;4997806;28;21017;-77
2020/12/01 04:28:34;;;;;;;34.97;31.70;;;6.30;99.90;;;;;;5002547;28;20644;-78
2020/12/01 04:31:01;;;;;;;36.17;30.30;;;6.30;99.90;;;;;;5000336;28;20461;-79
2020/12/01 04:33:28;;;;;;;34.00;29.63;;;6.20;99.90;;;;;;4999155;28;20962;-79
2020/12/01 04:35:54;;;;;;;37.23;30.70;;;6.20;99.90;;;;;;4991143;28;20739;-76
2020/12/01 04:38:20;;;;;;;32.87;29.43;;;6.30;99.90;;;;;;5002287;28;20472;-77
2020/12/01 04:40:46;;;;;;;30.57;27.60;;;6.40;99.90;;;;;;5006918;28;20450;-78
2020/12/01 04:43:17;;;;;;;31.10;28.20;;;6.30;99.90;;;;;;5002418;28;20481;-77
2020/12/01 04:45:49;;;;;;;30.03;26.60;;;6.30;99.90;;;;;;5003709;28;20593;-77
2020/12/01 04:48:25;;;;;;;31.13;28.13;;;6.20;99.90;;;;;;4999789;28;20459;-78
2020/12/01 04:50:59;;;;;;;31.00;27.60;;;6.20;99.90;;;;;;5001642;28;20465;-78
2020/12/01 04:54:08;;;;;;;32.83;29.47;;;6.30;99.90;;;;;;5001775;28;20471;-78
2020/12/01 04:57:12;;;;;;;30.53;27.70;;;6.30;99.90;;;;;;4996153;28;20521;-77
2020/12/01 04:59:48;;;;;;;30.20;27.37;;;6.30;99.90;;;;;;4989042;28;20474;-77
2020/12/01 05:02:40;;;;;;;33.63;28.73;;;6.30;99.90;;;;;;5002423;28;20966;-78
2020/12/01 05:05:21;;;;;;;31.77;28.27;;;6.30;99.90;;;;;;4993708;28;20498;-79
2020/12/01 05:08:11;;;;;;;32.80;29.50;;;6.20;99.90;;;;;;4998490;28;20951;-76
2020/12/01 05:10:42;;;;;;;34.33;29.70;;;6.10;99.90;;;;;;5001966;28;20521;-78
2020/12/01 05:13:17;;;;;;;35.50;28.27;;;6.00;99.90;;;;;;5003931;28;20462;-76
2020/12/01 05:15:48;;;;;;;33.00;29.50;;;6.00;99.90;;;;;;5002235;28;20536;-75
2020/12/01 05:18:21;;;;;;;31.93;28.57;;;6.00;99.90;;;;;;5001331;28;20462;-78
2020/12/01 05:20:49;;;;;;;32.80;27.90;;;6.10;99.90;;;;;;4999457;28;20471;-76
2020/12/01 05:23:20;;;;;;;29.27;26.33;;;6.00;99.90;;;;;;5003889;28;20478;-78
2020/12/01 05:25:57;;;;;;;30.87;27.50;;;6.10;99.90;;;;;;5000872;28;20553;-76
2020/12/01 05:28:23;;;;;;;37.03;27.20;;;6.00;99.90;;;;;;5001962;28;20453;-79
2020/12/01 05:30:59;;;;;;;40.43;27.27;;;6.10;99.90;;;;;;5002716;28;20469;-78
2020/12/01 05:33:28;;;;;;;29.80;26.70;;;6.00;99.90;;;;;;5000368;28;20462;-78
2020/12/01 05:36:04;;;;;;;33.43;28.53;;;6.00;99.90;;;;;;4998556;28;21028;-78
2020/12/01 05:38:32;;;;;;;49.50;27.77;;;6.00;99.90;;;;;;4997276;28;20971;-77
2020/12/01 05:41:00;;;;;;;31.20;27.23;;;6.10;99.90;;;;;;4998430;28;20477;-76
2020/12/01 05:43:35;;;;;;;33.87;26.63;;;6.00;99.90;;;;;;4995984;28;20842;-77
2020/12/01 05:46:17;;;;;;;32.97;27.37;;;5.90;99.90;;;;;;5007446;28;20499;-78
2020/12/01 05:48:57;;;;;;;30.57;27.40;;;5.90;99.90;;;;;;5005861;28;20738;-77
2020/12/01 05:51:28;;;;;;;29.47;26.50;;;6.00;99.90;;;;;;5000667;28;20823;-75
2020/12/01 05:53:59;;;;;;;45.83;28.80;;;6.00;99.90;;;;;;4999009;28;20476;-77
2020/12/01 05:56:27;;;;;;;36.40;28.60;;;6.00;99.90;;;;;;5002673;28;20894;-77
2020/12/01 05:59:00;;;;;;;38.77;27.43;;;5.90;99.90;;;;;;5003788;28;20476;-79
2020/12/01 06:01:27;;;;;;;39.83;29.80;;;5.90;99.90;;;;;;4994384;28;20986;-78
2020/12/01 06:04:13;;;;;;;56.23;29.30;;;5.90;99.90;;;;;;5001117;28;20819;-77
2020/12/01 06:07:06;;;;;;;29.67;26.60;;;5.90;99.90;;;;;;4995982;28;20495;-76
2020/12/01 06:09:55;;;;;;;34.80;28.03;;;5.90;99.90;;;;;;5006807;28;20532;-78
2020/12/01 06:12:35;;;;;;;34.20;28.83;;;6.10;99.90;;;;;;5002829;28;20462;-77
2020/12/01 06:15:05;;;;;;;44.43;30.50;;;6.10;99.90;;;;;;5001951;28;20464;-78
2020/12/01 06:17:40;;;;;;;31.83;28.33;;;6.10;99.90;;;;;;4998989;28;20458;-80
2020/12/01 06:20:18;;;;;;;61.73;28.60;;;6.20;99.90;;;;;;5002122;28;20569;-77
2020/12/01 06:23:14;;;;;;;51.40;29.73;;;6.20;99.90;;;;;;5002858;28;20524;-78
2020/12/01 06:26:13;;;;;;;49.77;31.27;;;6.30;99.90;;;;;;5001970;28;20501;-76
2020/12/01 06:29:07;;;;;;;40.73;29.40;;;6.30;99.90;;;;;;5004621;28;20507;-77
2020/12/01 06:32:07;;;;;;;42.03;28.53;;;6.40;99.90;;;;;;5003108;28;20470;-77
2020/12/01 06:35:11;;;;;;;40.40;28.53;;;6.40;99.90;;;;;;4997533;28;20454;-78
2020/12/01 06:37:58;;;;;;;59.00;31.37;;;6.40;99.90;;;;;;5004511;28;20473;-76
2020/12/01 06:40:36;;;;;;;38.00;29.90;;;6.50;99.90;;;;;;5007297;28;20468;-76
2020/12/01 06:43:09;;;;;;;40.43;30.57;;;6.60;99.90;;;;;;4998573;28;20482;-78
2020/12/01 06:45:39;;;;;;;36.87;29.53;;;6.60;99.90;;;;;;4991791;28;20593;-78
2020/12/01 06:48:10;;;;;;;47.23;30.67;;;6.60;99.90;;;;;;4994243;28;20843;-78
2020/12/01 06:50:42;;;;;;;36.90;28.93;;;6.70;99.90;;;;;;4994276;28;20471;-79
2020/12/01 06:53:09;;;;;;;32.93;29.53;;;6.70;99.90;;;;;;4998382;28;20465;-75
2020/12/01 06:55:49;;;;;;;42.33;29.10;;;6.60;99.90;;;;;;5000003;28;20471;-78
2020/12/01 06:58:20;;;;;;;40.53;28.83;;;6.60;99.90;;;;;;4997624;28;20465;-78
2020/12/01 07:00:46;;;;;;;45.20;30.57;;;6.60;99.90;;;;;;4995957;28;20469;-79
2020/12/01 07:03:23;;;;;;;33.90;29.20;;;6.60;99.90;;;;;;5000365;28;20477;-77
2020/12/01 07:05:50;;;;;;;43.20;29.23;;;6.60;99.90;;;;;;4992411;28;20520;-78
2020/12/01 07:08:26;;;;;;;51.17;32.67;;;6.60;99.90;;;;;;4989238;28;20471;-79
2020/12/01 07:11:05;;;;;;;46.13;30.23;;;6.60;99.90;;;;;;4996148;28;20473;-75
2020/12/01 07:13:43;;;;;;;45.07;29.40;;;6.70;99.90;;;;;;4997338;28;20458;-75
2020/12/01 07:16:22;;;;;;;39.90;32.30;;;6.70;99.90;;;;;;5000302;28;20812;-76
2020/12/01 07:18:53;;;;;;;43.40;31.60;;;6.70;99.90;;;;;;4996756;28;20854;-75
2020/12/01 07:21:24;;;;;;;52.80;31.37;;;6.60;99.90;;;;;;4994515;28;20454;-78
2020/12/01 07:23:59;;;;;;;41.13;31.27;;;6.60;99.90;;;;;;4993260;28;20482;-78
2020/12/01 07:26:37;;;;;;;45.93;32.23;;;6.70;99.90;;;;;;4997175;28;21000;-76
2020/12/01 07:29:24;;;;;;;39.83;32.20;;;6.70;99.90;;;;;;4997482;28;20545;-77
2020/12/01 07:31:51;;;;;;;42.77;33.13;;;6.70;99.90;;;;;;5001902;28;20462;-76
2020/12/01 07:34:26;;;;;;;56.70;32.57;;;6.60;99.90;;;;;;4998134;28;20804;-77
2020/12/01 07:36:56;;;;;;;36.17;30.77;;;6.60;99.90;;;;;;4995795;28;20480;-76
2020/12/01 07:39:24;;;;;;;52.70;31.80;;;6.50;99.90;;;;;;4995320;28;20459;-76
2020/12/01 07:41:54;;;;;;;37.17;31.17;;;6.40;99.90;;;;;;4996134;28;20465;-76
2020/12/01 07:44:22;;;;;;;40.80;31.40;;;6.40;99.90;;;;;;4999731;28;20470;-77
2020/12/01 07:47:05;;;;;;;44.80;31.80;;;6.40;99.90;;;;;;4998276;28;20523;-76
2020/12/01 07:49:34;;;;;;;32.17;28.73;;;6.40;99.90;;;;;;4996275;28;20521;-76
2020/12/01 07:52:18;;;;;;;38.00;31.37;;;6.40;99.90;;;;;;5003680;28;20951;-76
2020/12/01 07:54:56;;;;;;;41.47;29.40;;;6.40;99.90;;;;;;5001468;28;20476;-76
2020/12/01 07:57:23;;;;;;;37.33;30.57;;;6.40;99.90;;;;;;4995911;28;20470;-75
2020/12/01 07:59:53;;;;;;;49.03;30.60;;;6.50;99.90;;;;;;5000737;28;20471;-75
2020/12/01 08:02:25;;;;;;;41.93;30.23;;;6.50;99.90;;;;;;4999461;28;20553;-76
2020/12/01 08:05:03;;;;;;;49.57;31.50;;;6.60;99.90;;;;;;5000753;28;21278;-78
2020/12/01 08:07:29;;;;;;;41.33;33.10;;;6.70;99.90;;;;;;5002392;28;20491;-78
2020/12/01 08:10:06;;;;;;;35.20;29.80;;;6.60;99.90;;;;;;4996120;28;20477;-77
2020/12/01 08:12:37;;;;;;;46.10;30.57;;;6.60;99.90;;;;;;4991866;28;20977;-76
2020/12/01 08:15:06;;;;;;;38.03;30.57;;;6.70;99.90;;;;;;4997916;28;20475;-76
2020/12/01 08:17:35;;;;;;;39.53;30.10;;;6.70;99.90;;;;;;5000364;28;20985;-77
2020/12/01 08:20:05;;;;;;;36.57;31.20;;;6.70;99.90;;;;;;4999992;28;20463;-75
2020/12/01 08:22:35;;;;;;;35.40;29.67;;;6.80;99.90;;;;;;4998282;28;21099;-75
2020/12/01 08:25:04;;;;;;;35.80;30.53;;;6.90;99.90;;;;;;5003333;28;20487;-76
2020/12/01 08:27:39;;;;;;;42.93;31.07;;;6.90;99.90;;;;;;4994980;28;20466;-76
2020/12/01 08:30:18;;;;;;;34.03;30.60;;;7.00;99.90;;;;;;4988390;28;20475;-75
2020/12/01 08:32:46;;;;;;;39.17;29.47;;;7.10;99.90;;;;;;4990591;28;20984;-75
2020/12/01 08:35:21;;;;;;;35.20;29.77;;;7.10;99.90;;;;;;4989274;28;20462;-76
2020/12/01 08:37:56;;;;;;;36.03;31.50;;;7.20;99.90;;;;;;4998279;28;20463;-77
2020/12/01 08:40:33;;;;;;;43.07;29.67;;;7.30;99.90;;;;;;4999774;28;20963;-77
2020/12/01 08:43:15;;;;;;;38.80;30.60;;;7.30;99.90;;;;;;5000527;28;20486;-75
2020/12/01 08:45:49;;;;;;;36.80;30.03;;;7.30;99.90;;;;;;4998050;28;20492;-76
2020/12/01 08:48:23;;;;;;;38.73;29.10;;;7.40;99.90;;;;;;4990957;28;20502;-77
2020/12/01 08:50:59;;;;;;;37.73;30.13;;;7.40;99.90;;;;;;5000201;28;20952;-75
2020/12/01 08:53:25;;;;;;;43.13;31.60;;;7.40;99.90;;;;;;5001264;28;20464;-75
2020/12/01 08:55:55;;;;;;;42.00;32.77;;;7.50;99.90;;;;;;4996495;28;20564;-78
2020/12/01 08:58:39;;;;;;;35.53;30.00;;;7.50;99.90;;;;;;4998032;28;20462;-78
2020/12/01 09:01:08;;;;;;;38.80;30.93;;;7.50;99.90;;;;;;4996432;28;20508;-77
2020/12/01 09:03:38;;;;;;;43.70;29.40;;;7.50;99.90;;;;;;4999590;28;20931;-76
2020/12/01 09:06:05;;;;;;;49.90;32.23;;;7.50;99.90;;;;;;4994016;28;20498;-78
2020/12/01 09:08:42;;;;;;;43.63;30.77;;;7.60;99.90;;;;;;4997673;28;20472;-77
2020/12/01 09:14:18;;;;;;;44.10;30.50;;;7.70;99.90;;;;;;4999007;28;21090;-75
2020/12/01 09:17:00;;;;;;;42.67;30.43;;;7.70;99.90;;;;;;4997031;28;20465;-76
2020/12/01 09:19:53;;;;;;;49.03;31.90;;;7.80;99.90;;;;;;4999559;28;20845;-77
2020/12/01 09:22:26;;;;;;;43.70;28.70;;;7.80;99.90;;;;;;4998909;28;20474;-77
2020/12/01 09:25:04;;;;;;;48.20;29.07;;;7.90;99.90;;;;;;4997515;28;20489;-75
2020/12/01 09:27:33;;;;;;;34.70;27.07;;;7.90;99.90;;;;;;4992681;28;20465;-77
2020/12/01 09:30:00;;;;;;;42.27;27.30;;;8.00;99.90;;;;;;4987932;28;21243;-75
2020/12/01 09:32:28;;;;;;;36.63;29.93;;;8.00;99.90;;;;;;5000441;28;20457;-78
2020/12/01 09:34:55;;;;;;;34.30;27.97;;;8.10;99.90;;;;;;4991727;28;20477;-77
2020/12/01 09:37:21;;;;;;;33.40;28.00;;;8.10;99.90;;;;;;4999892;28;20466;-75
2020/12/01 09:39:48;;;;;;;31.90;27.33;;;8.10;99.90;;;;;;4995988;28;20471;-75
2020/12/01 09:42:23;;;;;;;35.27;26.20;;;8.20;99.90;;;;;;4996958;28;20498;-77
2020/12/01 09:45:02;;;;;;;31.20;27.33;;;8.20;99.90;;;;;;4996137;28;20467;-77
2020/12/01 09:47:36;;;;;;;30.83;26.60;;;8.20;99.90;;;;;;4995317;28;20581;-75
2020/12/01 09:50:05;;;;;;;35.13;26.73;;;8.30;99.90;;;;;;5000750;28;21035;-75
2020/12/01 09:52:39;;;;;;;33.27;27.00;;;8.40;99.90;;;;;;4999819;28;20464;-74
2020/12/01 09:55:10;;;;;;;35.50;29.23;;;8.40;99.90;;;;;;5001354;28;20534;-77
2020/12/01 09:57:48;;;;;;;36.97;28.70;;;8.30;99.90;;;;;;4996876;28;20450;-76
2020/12/01 10:00:40;;;;;;;33.23;29.10;;;8.30;99.90;;;;;;5000602;28;20560;-77
2020/12/01 10:08:52;;;;;;;40.50;31.03;;;8.70;99.90;;;;;;4992183;28;20505;-76
2020/12/01 10:14:06;;;;;;;37.17;31.00;;;8.50;99.90;;;;;;4957910;28;23176;-76
2020/12/01 10:16:53;;;;;;;45.13;34.73;;;8.40;99.90;;;;;;5006073;28;20471;-76
2020/12/01 10:19:57;;;;;;;47.40;34.97;;;8.50;99.90;;;;;;5003472;28;20468;-78
2020/12/01 10:36:18;;;;;;;41.13;32.10;;;8.40;99.90;;;;;;4996352;28;20543;-76
2020/12/01 10:38:45;;;;;;;40.17;30.73;;;8.40;99.90;;;;;;5002913;28;20457;-75
2020/12/01 10:41:12;;;;;;;33.40;29.07;;;8.10;99.90;;;;;;4999103;28;20479;-78
2020/12/01 10:43:38;;;;;;;37.17;28.63;;;8.10;99.90;;;;;;4997232;28;20489;-77
2020/12/01 10:46:08;;;;;;;30.23;27.43;;;8.10;99.90;;;;;;4998501;28;20557;-77
2020/12/01 10:48:34;;;;;;;30.27;27.17;;;8.20;99.90;;;;;;5001846;28;20474;-76
2020/12/01 10:51:00;;;;;;;37.90;26.00;;;8.10;99.90;;;;;;5001360;28;20475;-75
2020/12/01 10:53:28;;;;;;;34.23;25.33;;;8.10;99.90;;;;;;4998881;28;20467;-74
2020/12/01 10:55:54;;;;;;;27.60;24.60;;;8.10;99.90;;;;;;5002013;28;20575;-76
2020/12/01 10:58:21;;;;;;;28.03;25.17;;;8.10;99.90;;;;;;5001560;28;20524;-75
2020/12/01 11:00:47;;;;;;;28.80;24.43;;;8.00;99.90;;;;;;4998783;28;20472;-77
2020/12/01 11:03:14;;;;;;;26.63;24.30;;;8.00;99.90;;;;;;5002834;28;20474;-75
2020/12/01 11:05:40;;;;;;;26.03;23.67;;;8.00;99.90;;;;;;4998036;28;20495;-75
2020/12/01 11:08:07;;;;;;;27.43;24.73;;;8.10;99.90;;;;;;4993973;28;20834;-77
2020/12/01 11:10:35;;;;;;;28.73;26.13;;;8.20;99.90;;;;;;4993755;28;20562;-75
2020/12/01 11:13:01;;;;;;;25.50;23.40;;;8.20;99.90;;;;;;4997558;28;20563;-77
2020/12/01 11:15:28;;;;;;;27.20;24.40;;;8.30;99.90;;;;;;4997331;28;20978;-74
2020/12/01 11:17:54;;;;;;;26.37;23.83;;;8.30;99.90;;;;;;4993739;28;20974;-76
2020/12/01 11:20:20;;;;;;;24.40;22.13;;;8.30;99.90;;;;;;5001459;28;20471;-75
2020/12/01 11:22:48;;;;;;;25.33;23.07;;;8.30;99.90;;;;;;4991758;28;20467;-76
2020/12/01 11:25:16;;;;;;;25.87;23.47;;;8.30;99.90;;;;;;4996560;28;20453;-75
2020/12/01 11:27:44;;;;;;;23.67;21.30;;;8.30;99.90;;;;;;4996863;28;20477;-76
2020/12/01 11:30:11;;;;;;;28.70;22.60;;;8.30;99.90;;;;;;4994487;28;20465;-76
2020/12/01 11:32:37;;;;;;;32.60;23.73;;;8.30;99.90;;;;;;4998742;28;20789;-75
2020/12/01 11:35:04;;;;;;;23.73;21.63;;;8.30;99.90;;;;;;4995445;28;20501;-74
2020/12/01 11:37:30;;;;;;;24.30;21.77;;;8.30;99.90;;;;;;4994124;28;20464;-74
2020/12/01 11:39:57;;;;;;;23.43;21.03;;;8.30;99.90;;;;;;4992746;28;20470;-75
2020/12/01 11:42:23;;;;;;;24.30;21.60;;;8.20;99.90;;;;;;4998374;28;20494;-75
2020/12/01 11:44:51;;;;;;;24.50;22.30;;;8.20;99.90;;;;;;4999147;28;20498;-75
2020/12/01 11:47:18;;;;;;;22.60;20.37;;;8.20;99.90;;;;;;4998062;28;20500;-75
2020/12/01 11:49:44;;;;;;;26.43;20.70;;;8.20;99.90;;;;;;5000409;28;20586;-75
2020/12/01 11:52:11;;;;;;;23.27;20.80;;;8.30;99.90;;;;;;4998245;28;20484;-75
2020/12/01 11:54:37;;;;;;;21.17;19.07;;;8.20;99.90;;;;;;4997897;28;20475;-75
2020/12/01 11:57:04;;;;;;;21.63;19.57;;;8.20;99.90;;;;;;4998909;28;20465;-74
2020/12/01 11:59:30;;;;;;;20.53;18.80;;;8.30;99.90;;;;;;4996556;28;20843;-75
2020/12/01 12:01:57;;;;;;;18.40;17.37;;;8.30;99.90;;;;;;5003314;28;20466;-75
2020/12/01 12:04:24;;;;;;;20.57;18.97;;;8.20;99.90;;;;;;4998212;28;20465;-76
2020/12/01 12:06:50;;;;;;;19.50;18.00;;;8.30;99.90;;;;;;4999661;28;20780;-75
2020/12/01 12:09:17;;;;;;;20.60;19.10;;;8.20;99.90;;;;;;5001772;28;20470;-76
2020/12/01 12:11:44;;;;;;;20.63;18.60;;;8.30;99.90;;;;;;5002166;28;20468;-75
2020/12/01 12:14:11;;;;;;;21.63;19.57;;;8.30;99.90;;;;;;4997573;28;20470;-74
2020/12/01 12:16:37;;;;;;;25.50;21.13;;;8.20;99.90;;;;;;5003944;28;20469;-75
2020/12/01 12:19:05;;;;;;;22.67;20.37;;;8.20;99.90;;;;;;4994913;28;20477;-77
2020/12/01 12:21:32;;;;;;;24.27;22.00;;;8.20;99.90;;;;;;4996331;28;20464;-75
2020/12/01 12:23:59;;;;;;;24.17;21.80;;;8.20;99.90;;;;;;4993529;28;20498;-75
2020/12/01 12:26:26;;;;;;;25.57;21.03;;;8.30;99.90;;;;;;5001146;28;20516;-75
2020/12/01 12:28:53;;;;;;;24.57;22.20;;;8.30;99.90;;;;;;4997488;28;20960;-75
2020/12/01 12:31:20;;;;;;;27.27;24.70;;;8.30;99.90;;;;;;5003584;28;20581;-75
2020/12/01 12:33:48;;;;;;;25.47;22.90;;;8.30;99.90;;;;;;4994525;28;20480;-75
2020/12/01 12:36:17;;;;;;;25.60;23.30;;;8.30;99.90;;;;;;4989953;28;20858;-75
2020/12/01 12:38:44;;;;;;;28.03;24.93;;;8.30;99.90;;;;;;4995194;28;20474;-76
2020/12/01 12:41:11;;;;;;;22.40;20.40;;;8.30;99.90;;;;;;4996858;28;20471;-75
2020/12/01 12:43:37;;;;;;;23.43;20.30;;;8.30;99.90;;;;;;4998021;28;20503;-76
2020/12/01 12:46:03;;;;;;;30.30;22.37;;;8.30;99.90;;;;;;4999633;28;20534;-75
2020/12/01 12:48:30;;;;;;;25.07;22.60;;;8.30;99.90;;;;;;4997113;28;20476;-75
2020/12/01 12:50:57;;;;;;;28.37;22.23;;;8.30;99.90;;;;;;4996913;28;20468;-77
2020/12/01 12:53:25;;;;;;;25.60;21.90;;;8.20;99.90;;;;;;4996649;28;20812;-76
2020/12/01 12:55:52;;;;;;;25.67;23.20;;;8.20;99.90;;;;;;4993863;28;21262;-75
2020/12/01 12:58:18;;;;;;;24.03;21.67;;;8.20;99.90;;;;;;4995470;28;20481;-75
2020/12/01 13:00:45;;;;;;;25.67;22.93;;;8.20;99.90;;;;;;4998448;28;20548;-75
2020/12/01 13:03:12;;;;;;;36.80;26.50;;;8.10;99.90;;;;;;4997664;28;20982;-75
2020/12/01 13:05:40;;;;;;;30.53;27.87;;;8.00;99.90;;;;;;4996035;28;20485;-74
2020/12/01 13:08:07;;;;;;;40.60;27.33;;;8.10;99.90;;;;;;4996322;28;20477;-75
2020/12/01 13:10:35;;;;;;;51.37;29.57;;;8.00;99.90;;;;;;4998999;28;20906;-76
2020/12/01 13:13:02;;;;;;;30.80;27.90;;;8.00;99.90;;;;;;5000145;28;20465;-75
2020/12/01 13:15:29;;;;;;;27.80;25.57;;;8.10;99.90;;;;;;4997106;28;20465;-76
2020/12/01 13:17:55;;;;;;;33.53;24.70;;;8.10;99.90;;;;;;4994766;28;20461;-76